createdAt,value
2018-07-20T00:02:06.450Z,98.60
2018-07-20T00:04:36.428Z,99.10
2018-07-20T00:07:06.451Z,99.40
2018-07-20T00:09:36.380Z,98.90
2018-07-20T00:12:06.462Z,99.80
2018-07-20T00:14:36.578Z,99.00
2018-07-20T00:17:07.694Z,97.20
2018-07-20T00:19:37.698Z,96.30
2018-07-20T00:22:07.884Z,97.00
2018-07-20T00:24:37.911Z,97.00
2018-07-20T00:27:07.934Z,98.50
2018-07-20T00:29:37.888Z,99.60
2018-07-20T00:32:07.999Z,99.90
2018-07-20T00:34:38.095Z,99.90
2018-07-20T00:37:08.169Z,99.90
2018-07-20T00:39:38.197Z,99.90
2018-07-20T00:42:08.230Z,99.00
2018-07-20T00:44:38.423Z,99.90
2018-07-20T00:47:08.590Z,98.10
2018-07-20T00:49:38.702Z,98.00
2018-07-20T00:52:08.852Z,97.20
2018-07-20T00:54:38.960Z,97.80
2018-07-20T00:57:09.061Z,98.70
2018-07-20T00:59:39.042Z,99.80
2018-07-20T01:02:09.184Z,99.10
2018-07-20T01:04:39.293Z,98.20
2018-07-20T01:07:09.491Z,98.70
2018-07-20T01:09:39.590Z,99.10
2018-07-20T01:12:09.808Z,99.50
2018-07-20T01:14:39.844Z,99.20
2018-07-20T01:17:09.849Z,98.90
2018-07-20T01:19:39.978Z,98.30
2018-07-20T01:22:10.218Z,98.50
2018-07-20T01:24:40.242Z,99.50
2018-07-20T01:27:10.256Z,99.90
2018-07-20T01:29:40.305Z,99.90
2018-07-20T01:32:10.693Z,99.90
2018-07-20T01:34:40.729Z,99.90
2018-07-20T01:37:10.839Z,99.90
2018-07-20T01:39:41.007Z,98.60
2018-07-20T01:42:11.125Z,99.20
2018-07-20T01:44:41.271Z,99.90
2018-07-20T01:47:11.393Z,99.30
2018-07-20T01:49:41.449Z,99.40
2018-07-20T01:52:11.604Z,99.30
2018-07-20T01:54:41.682Z,98.90
2018-07-20T01:57:11.835Z,98.80
2018-07-20T01:59:41.854Z,97.90
2018-07-20T02:02:11.993Z,97.90
2018-07-20T02:04:42.114Z,99.00
2018-07-20T02:07:12.082Z,99.20
2018-07-20T02:09:41.922Z,99.70
2018-07-20T02:12:12.047Z,99.90
2018-07-20T02:14:42.029Z,99.90
2018-07-20T02:17:12.169Z,99.90
2018-07-20T02:19:42.146Z,99.90
2018-07-20T02:22:12.234Z,99.90
2018-07-20T02:24:42.283Z,99.90
2018-07-20T02:27:12.182Z,99.90
2018-07-20T02:29:42.014Z,99.90
2018-07-20T02:32:12.162Z,99.70
2018-07-20T02:34:42.190Z,99.70
2018-07-20T02:37:12.322Z,99.30
2018-07-20T02:39:42.382Z,98.50
2018-07-20T02:42:12.245Z,98.40
2018-07-20T02:44:42.095Z,98.50
2018-07-20T02:47:12.266Z,98.70
2018-07-20T02:49:42.285Z,99.90
2018-07-20T02:52:12.354Z,99.90
2018-07-20T02:54:42.293Z,99.90
2018-07-20T02:57:12.195Z,99.90
2018-07-20T02:59:41.919Z,99.90
2018-07-20T03:02:11.611Z,99.90
2018-07-20T03:04:41.331Z,99.90
2018-07-20T03:07:11.215Z,99.90
2018-07-20T03:09:40.958Z,99.30
2018-07-20T03:12:10.809Z,99.90
2018-07-20T03:14:40.961Z,99.90
2018-07-20T03:17:10.685Z,99.90
2018-07-20T03:19:40.332Z,99.90
2018-07-20T03:22:10.114Z,99.90
2018-07-20T03:24:39.793Z,99.70
2018-07-20T03:27:09.474Z,99.90
2018-07-20T03:29:39.158Z,99.90
2018-07-20T03:32:08.821Z,99.90
2018-07-20T03:34:38.477Z,99.90
2018-07-20T03:37:08.240Z,99.90
2018-07-20T03:39:37.897Z,99.90
2018-07-20T03:42:07.681Z,99.90
2018-07-20T03:44:37.389Z,99.90
2018-07-20T03:47:07.070Z,99.90
2018-07-20T03:49:36.809Z,99.90
2018-07-20T03:52:06.718Z,99.90
2018-07-20T03:54:36.357Z,99.80
2018-07-20T03:57:06.174Z,99.90
2018-07-20T03:59:35.830Z,99.90
2018-07-20T04:02:05.597Z,99.30
2018-07-20T04:04:35.252Z,99.90
2018-07-20T04:07:04.917Z,99.90
2018-07-20T04:09:34.659Z,99.90
2018-07-20T04:12:04.697Z,99.90
2018-07-20T04:14:34.370Z,99.90
2018-07-20T04:17:04.185Z,99.90
2018-07-20T04:19:33.873Z,99.90
2018-07-20T04:22:04.062Z,99.90
2018-07-20T04:24:33.730Z,99.90
2018-07-20T04:27:03.437Z,99.90
2018-07-20T04:29:33.106Z,99.90
2018-07-20T04:32:02.815Z,99.90
2018-07-20T04:34:32.598Z,99.90
2018-07-20T04:37:02.263Z,99.90
2018-07-20T04:39:31.917Z,99.90
2018-07-20T04:42:01.594Z,99.90
2018-07-20T04:44:31.248Z,99.90
2018-07-20T04:47:00.936Z,99.90
2018-07-20T04:49:30.661Z,99.90
2018-07-20T04:52:00.329Z,99.90
2018-07-20T04:54:29.973Z,99.90
2018-07-20T04:56:59.605Z,99.90
2018-07-20T04:59:29.265Z,99.90
2018-07-20T05:01:58.898Z,99.90
2018-07-20T05:04:28.567Z,99.90
2018-07-20T05:06:58.254Z,99.90
2018-07-20T05:09:27.938Z,99.90
2018-07-20T05:11:57.585Z,99.90
2018-07-20T05:14:27.314Z,99.90
2018-07-20T05:16:56.937Z,99.90
2018-07-20T05:19:26.669Z,99.90
2018-07-20T05:21:56.567Z,99.90
2018-07-20T05:24:26.197Z,99.90
2018-07-20T05:26:55.825Z,99.90
2018-07-20T05:29:25.433Z,99.90
2018-07-20T05:31:55.097Z,99.90
2018-07-20T05:34:24.773Z,99.90
2018-07-20T05:36:54.385Z,99.70
2018-07-20T05:39:24.019Z,99.90
2018-07-20T05:41:53.685Z,99.90
2018-07-20T05:44:23.521Z,99.90
2018-07-20T05:46:53.215Z,99.90
2018-07-20T05:49:22.859Z,99.90
2018-07-20T05:51:52.501Z,99.90
2018-07-20T05:54:22.131Z,99.90
2018-07-20T05:56:51.729Z,99.90
2018-07-20T05:59:21.390Z,99.90
2018-07-20T06:01:51.085Z,99.90
2018-07-20T06:04:20.722Z,99.90
2018-07-20T06:06:50.361Z,99.50
2018-07-20T06:09:20.301Z,99.00
2018-07-20T06:11:49.948Z,99.10
2018-07-20T06:14:19.598Z,99.00
2018-07-20T06:16:49.249Z,99.00
2018-07-20T06:19:18.881Z,99.30
2018-07-20T06:21:48.583Z,99.50
2018-07-20T06:24:18.202Z,99.70
2018-07-20T06:26:47.837Z,99.50
2018-07-20T06:29:17.453Z,99.60
2018-07-20T06:31:47.062Z,99.50
2018-07-20T06:34:16.660Z,99.00
2018-07-20T06:36:46.299Z,99.10
2018-07-20T06:39:15.999Z,98.90
2018-07-20T06:41:45.743Z,98.90
2018-07-20T06:44:15.357Z,98.60
2018-07-20T06:46:44.961Z,97.70
2018-07-20T06:49:14.571Z,97.80
2018-07-20T06:51:44.159Z,97.20
2018-07-20T06:54:13.745Z,96.80
2018-07-20T06:56:43.310Z,96.60
2018-07-20T06:59:12.905Z,96.00
2018-07-20T07:01:42.578Z,96.00
2018-07-20T07:04:12.654Z,95.40
2018-07-20T07:06:42.253Z,95.50
2018-07-20T07:09:11.897Z,95.40
2018-07-20T07:11:41.545Z,96.20
2018-07-20T07:14:11.178Z,96.10
2018-07-20T07:16:40.819Z,95.90
2018-07-20T07:19:10.565Z,95.90
2018-07-20T07:21:40.162Z,96.00
2018-07-20T07:24:09.777Z,96.10
2018-07-20T07:26:39.381Z,95.80
2018-07-20T07:29:08.998Z,95.50
2018-07-20T07:31:38.593Z,95.40
2018-07-20T07:34:08.217Z,95.40
2018-07-20T07:36:37.821Z,95.60
2018-07-20T07:39:11.253Z,94.90
2018-07-20T07:41:40.896Z,94.00
2018-07-20T07:44:10.542Z,93.80
2018-07-20T07:46:40.158Z,93.30
2018-07-20T07:49:09.772Z,92.90
2018-07-20T07:51:39.375Z,92.40
2018-07-20T07:54:09.030Z,91.90
2018-07-20T07:56:38.627Z,92.60
2018-07-20T07:59:08.212Z,92.10
2018-07-20T08:01:37.981Z,91.20
2018-07-20T08:04:07.615Z,90.50
2018-07-20T08:06:37.321Z,90.30
2018-07-20T08:09:11.251Z,88.70
2018-07-20T08:11:41.178Z,87.30
2018-07-20T08:14:12.465Z,87.30
2018-07-20T08:16:42.057Z,87.00
2018-07-20T08:19:11.894Z,87.00
2018-07-20T08:21:41.953Z,87.30
2018-07-20T08:24:11.583Z,86.90
2018-07-20T08:26:41.193Z,86.30
2018-07-20T08:29:11.508Z,86.00
2018-07-20T08:31:41.169Z,84.90
2018-07-20T08:34:11.613Z,84.90
2018-07-20T08:36:41.241Z,84.90
2018-07-20T08:39:11.292Z,84.50
2018-07-20T08:41:40.967Z,83.60
2018-07-20T08:44:10.561Z,83.60
2018-07-20T08:46:40.285Z,82.70
2018-07-20T08:49:09.869Z,82.70
2018-07-20T08:51:39.465Z,82.70
2018-07-20T08:54:09.163Z,81.60
2018-07-20T08:56:38.769Z,81.70
2018-07-20T08:59:08.527Z,81.70
2018-07-20T09:01:38.033Z,79.80
2018-07-20T09:04:07.848Z,81.10
2018-07-20T09:06:37.528Z,80.10
2018-07-20T09:09:08.909Z,79.90
2018-07-20T09:11:38.597Z,79.70
2018-07-20T09:14:08.313Z,76.60
2018-07-20T09:16:37.926Z,76.90
2018-07-20T09:19:07.641Z,77.50
2018-07-20T09:21:37.222Z,77.50
2018-07-20T09:24:06.861Z,77.90
2018-07-20T09:26:36.451Z,76.60
2018-07-20T09:29:06.082Z,77.50
2018-07-20T09:31:35.669Z,76.50
2018-07-20T09:34:05.388Z,75.40
2018-07-20T09:36:35.055Z,75.90
2018-07-20T09:39:07.002Z,75.30
2018-07-20T09:41:36.758Z,75.90
2018-07-20T09:44:06.390Z,74.50
2018-07-20T09:46:36.026Z,74.00
2018-07-20T09:49:05.822Z,74.60
2018-07-20T09:51:35.425Z,74.60
2018-07-20T09:54:05.046Z,75.20
2018-07-20T09:56:34.665Z,74.50
2018-07-20T09:59:04.313Z,73.90
2018-07-20T10:01:33.970Z,69.70
2018-07-20T10:04:03.585Z,72.90
2018-07-20T10:06:33.221Z,71.70
2018-07-20T10:09:02.898Z,72.30
2018-07-20T10:11:32.537Z,70.80
2018-07-20T10:14:02.121Z,69.60
2018-07-20T10:16:31.717Z,70.20
2018-07-20T10:19:01.463Z,70.90
2018-07-20T10:21:31.528Z,70.40
2018-07-20T10:24:01.146Z,70.50
2018-07-20T10:26:30.795Z,70.30
2018-07-20T10:29:01.062Z,70.40
2018-07-20T10:31:30.702Z,69.50
2018-07-20T10:34:00.371Z,69.00
2018-07-20T10:36:29.994Z,69.40
2018-07-20T10:38:59.634Z,68.30
2018-07-20T10:41:29.233Z,67.50
2018-07-20T10:43:59.956Z,67.20
2018-07-20T10:46:35.549Z,65.80
2018-07-20T10:49:05.415Z,66.30
2018-07-20T10:51:35.039Z,67.00
2018-07-20T10:54:05.770Z,66.50
2018-07-20T10:56:52.289Z,66.40
2018-07-20T10:59:21.909Z,65.80
2018-07-20T11:01:51.933Z,65.10
2018-07-20T11:04:21.578Z,64.40
2018-07-20T11:06:51.301Z,62.60
2018-07-20T11:09:20.922Z,63.00
2018-07-20T11:11:50.577Z,63.30
2018-07-20T11:14:20.273Z,63.40
2018-07-20T11:16:50.013Z,65.20
2018-07-20T11:19:19.629Z,65.60
2018-07-20T11:21:49.293Z,65.70
2018-07-20T11:24:18.951Z,65.70
2018-07-20T11:26:48.563Z,64.00
2018-07-20T11:29:18.201Z,65.10
2018-07-20T11:31:47.885Z,64.60
2018-07-20T11:34:17.550Z,65.50
2018-07-20T11:36:47.158Z,62.00
2018-07-20T11:39:16.826Z,63.60
2018-07-20T11:41:46.480Z,63.50
2018-07-20T11:44:16.065Z,63.30
2018-07-20T11:46:45.674Z,62.40
2018-07-20T11:49:15.277Z,61.80
2018-07-20T11:51:44.902Z,60.20
2018-07-20T11:54:14.561Z,61.40
2018-07-20T11:56:44.190Z,61.80
2018-07-20T11:59:13.773Z,60.20
2018-07-20T12:01:43.423Z,60.70
2018-07-20T12:04:13.021Z,62.20
2018-07-20T12:06:42.662Z,60.90
2018-07-20T12:09:12.962Z,60.80
2018-07-20T12:11:42.905Z,60.90
2018-07-20T12:14:12.577Z,60.10
2018-07-20T12:16:42.193Z,60.40
2018-07-20T12:19:11.830Z,60.60
2018-07-20T12:21:41.444Z,59.50
2018-07-20T12:24:11.175Z,60.50
2018-07-20T12:26:40.846Z,61.50
2018-07-20T12:29:10.638Z,61.10
2018-07-20T12:31:40.288Z,61.20
2018-07-20T12:34:09.911Z,60.60
2018-07-20T12:36:45.083Z,60.30
2018-07-20T12:39:14.705Z,60.50
2018-07-20T12:41:44.330Z,60.50
2018-07-20T12:44:13.977Z,60.10
2018-07-20T12:46:43.715Z,58.90
2018-07-20T12:49:13.329Z,60.10
2018-07-20T12:51:42.984Z,59.50
2018-07-20T12:54:12.655Z,59.20
2018-07-20T12:56:42.310Z,58.10
2018-07-20T12:59:11.998Z,59.10
2018-07-20T13:01:41.628Z,58.50
2018-07-20T13:04:11.302Z,58.50
2018-07-20T13:06:41.009Z,58.10
2018-07-20T13:09:12.566Z,57.90
2018-07-20T13:11:42.771Z,59.10
2018-07-20T13:14:13.062Z,59.70
2018-07-20T13:16:43.167Z,58.10
2018-07-20T13:19:12.849Z,57.90
2018-07-20T13:21:42.537Z,57.80
2018-07-20T13:24:12.179Z,57.70
2018-07-20T13:26:41.831Z,58.30
2018-07-20T13:29:11.488Z,58.50
2018-07-20T13:31:41.166Z,58.50
2018-07-20T13:34:10.771Z,58.80
2018-07-20T13:36:40.462Z,58.60
2018-07-20T13:39:11.765Z,58.50
2018-07-20T13:41:42.042Z,57.60
2018-07-20T13:44:11.705Z,57.60
2018-07-20T13:46:41.367Z,58.20
2018-07-20T13:49:11.066Z,57.90
2018-07-20T13:51:40.732Z,55.80
2018-07-20T13:54:10.402Z,57.30
2018-07-20T13:56:40.073Z,57.30
2018-07-20T13:59:09.932Z,57.50
2018-07-20T14:01:39.664Z,55.60
2018-07-20T14:04:09.345Z,56.60
2018-07-20T14:06:38.958Z,57.20
2018-07-20T14:09:10.337Z,56.90
2018-07-20T14:11:40.236Z,57.40
2018-07-20T14:14:10.396Z,54.80
2018-07-20T14:16:40.099Z,55.40
2018-07-20T14:19:09.706Z,56.30
2018-07-20T14:21:39.402Z,57.30
2018-07-20T14:24:09.051Z,57.70
2018-07-20T14:26:39.764Z,56.80
2018-07-20T14:29:09.503Z,58.70
2018-07-20T14:31:39.324Z,57.10
2018-07-20T14:34:08.873Z,58.00
2018-07-20T14:36:38.493Z,57.40
2018-07-20T14:39:12.041Z,57.80
2018-07-20T14:41:42.219Z,58.00
2018-07-20T14:44:11.906Z,57.70
2018-07-20T14:46:41.587Z,58.20
2018-07-20T14:49:11.618Z,57.90
2018-07-20T14:51:41.422Z,58.40
2018-07-20T14:54:11.229Z,57.60
2018-07-20T14:56:40.917Z,57.50
2018-07-20T14:59:10.826Z,58.00
2018-07-20T15:01:40.591Z,57.80
2018-07-20T15:04:10.438Z,56.30
2018-07-20T15:06:40.394Z,57.50
2018-07-20T15:09:12.249Z,54.90
2018-07-20T15:11:41.939Z,56.00
2018-07-20T15:14:11.818Z,55.00
2018-07-20T15:16:41.532Z,54.50
2018-07-20T15:19:11.230Z,56.10
2018-07-20T15:21:40.945Z,56.20
2018-07-20T15:24:10.569Z,56.50
2018-07-20T15:26:40.205Z,56.50
2018-07-20T15:29:09.865Z,55.60
2018-07-20T15:31:39.555Z,55.80
2018-07-20T15:34:09.185Z,55.10
2018-07-20T15:36:38.846Z,54.90
2018-07-20T15:39:11.024Z,55.00
2018-07-20T15:41:40.886Z,54.70
2018-07-20T15:44:10.577Z,53.20
2018-07-20T15:46:40.295Z,51.60
2018-07-20T15:49:09.958Z,54.30
2018-07-20T15:53:35.205Z,53.90
2018-07-20T15:54:09.315Z,54.40
2018-07-20T15:56:38.953Z,53.00
2018-07-20T15:59:08.751Z,53.90
2018-07-20T16:01:38.584Z,54.10
2018-07-20T16:04:08.278Z,54.10
2018-07-20T16:06:37.921Z,52.30
2018-07-20T16:09:10.997Z,53.10
2018-07-20T16:11:40.697Z,53.10
2018-07-20T16:14:10.333Z,53.00
2018-07-20T16:16:39.973Z,53.40
2018-07-20T16:19:09.580Z,53.50
2018-07-20T16:21:39.266Z,52.60
2018-07-20T16:24:09.129Z,54.60
2018-07-20T16:26:38.715Z,54.00
2018-07-20T16:29:08.357Z,52.80
2018-07-20T16:31:37.973Z,52.50
2018-07-20T16:34:07.955Z,53.20
2018-07-20T16:36:37.585Z,50.80
2018-07-20T16:39:09.881Z,52.40
2018-07-20T16:41:39.509Z,51.40
2018-07-20T16:44:09.377Z,51.50
2018-07-20T16:46:39.147Z,52.40
2018-07-20T16:49:09.017Z,52.30
2018-07-20T16:51:39.026Z,52.30
2018-07-20T16:54:08.861Z,52.10
2018-07-20T16:56:38.462Z,53.90
2018-07-20T16:59:08.180Z,52.70
2018-07-20T17:01:37.889Z,53.20
2018-07-20T17:04:07.513Z,53.20
2018-07-20T17:06:37.117Z,53.10
2018-07-20T17:09:10.325Z,53.20
2018-07-20T17:11:40.461Z,53.10
2018-07-20T17:14:10.125Z,53.20
2018-07-20T17:16:39.753Z,54.10
2018-07-20T17:19:09.357Z,54.40
2018-07-20T17:21:39.037Z,54.20
2018-07-20T17:24:08.614Z,53.70
2018-07-20T17:26:38.248Z,54.40
2018-07-20T17:29:07.847Z,54.60
2018-07-20T17:31:37.493Z,54.60
2018-07-20T17:34:07.106Z,55.80
2018-07-20T17:36:36.798Z,55.20
2018-07-20T17:39:10.379Z,55.20
2018-07-20T17:41:39.968Z,55.50
2018-07-20T17:44:10.017Z,56.10
2018-07-20T17:46:39.893Z,55.90
2018-07-20T17:49:09.557Z,57.60
2018-07-20T17:51:39.197Z,56.00
2018-07-20T17:54:08.816Z,56.70
2018-07-20T17:56:38.444Z,56.90
2018-07-20T17:59:08.043Z,56.90
2018-07-20T18:01:50.510Z,55.80
2018-07-20T18:04:20.114Z,55.30
2018-07-20T18:06:49.737Z,54.60
2018-07-20T18:09:19.380Z,55.20
2018-07-20T18:11:49.025Z,55.80
2018-07-20T18:14:18.680Z,56.00
2018-07-20T18:16:48.278Z,55.80
2018-07-20T18:19:19.997Z,55.80
2018-07-20T18:21:49.620Z,56.00
2018-07-20T18:24:19.563Z,55.80
2018-07-20T18:26:49.231Z,55.30
2018-07-20T18:29:18.811Z,55.90
2018-07-20T18:31:48.458Z,54.90
2018-07-20T18:34:18.063Z,55.40
2018-07-20T18:36:47.704Z,55.90
2018-07-20T18:39:17.381Z,54.60
2018-07-20T18:41:47.293Z,55.00
2018-07-20T18:44:16.902Z,55.30
2018-07-20T18:46:46.557Z,56.30
2018-07-20T18:49:16.166Z,55.00
2018-07-20T18:51:45.785Z,56.20
2018-07-20T18:54:15.409Z,56.80
2018-07-20T18:56:45.021Z,55.80
2018-07-20T18:59:14.645Z,55.50
2018-07-20T19:01:44.283Z,55.80
2018-07-20T19:04:14.973Z,55.60
2018-07-20T19:06:44.565Z,55.60
2018-07-20T19:09:14.151Z,56.10
2018-07-20T19:11:43.794Z,56.40
2018-07-20T19:14:13.629Z,56.30
2018-07-20T19:16:43.290Z,56.40
2018-07-20T19:19:12.938Z,56.90
2018-07-20T19:21:42.537Z,57.00
2018-07-20T19:24:12.145Z,57.30
2018-07-20T19:26:41.787Z,57.00
2018-07-20T19:29:11.453Z,58.30
2018-07-20T19:31:41.107Z,57.70
2018-07-20T19:34:10.740Z,58.00
2018-07-20T19:36:40.321Z,59.80
2018-07-20T19:39:11.167Z,59.20
2018-07-20T19:41:41.025Z,59.40
2018-07-20T19:44:10.621Z,60.10
2018-07-20T19:46:40.244Z,59.30
2018-07-20T19:49:09.936Z,60.90
2018-07-20T19:51:39.615Z,59.70
2018-07-20T19:54:09.254Z,60.30
2018-07-20T19:56:38.921Z,60.40
2018-07-20T19:59:08.559Z,61.50
2018-07-20T20:01:38.186Z,61.70
2018-07-20T20:04:07.809Z,60.70
2018-07-20T20:06:37.442Z,61.60
2018-07-20T20:09:16.610Z,61.30
2018-07-20T20:11:49.889Z,62.00
2018-07-20T20:14:19.517Z,62.50
2018-07-20T20:16:59.249Z,63.30
2018-07-20T20:19:33.761Z,63.20
2018-07-20T20:22:03.501Z,63.60
2018-07-20T20:24:33.164Z,64.00
2018-07-20T20:27:02.774Z,63.30
2018-07-20T20:29:32.467Z,63.10
2018-07-20T20:32:02.033Z,63.80
2018-07-20T20:34:31.673Z,64.80
2018-07-20T20:37:01.313Z,64.90
2018-07-20T20:39:31.001Z,66.70
2018-07-20T20:42:00.621Z,69.30
2018-07-20T20:44:30.284Z,70.60
2018-07-20T20:47:00.048Z,71.30
2018-07-20T20:49:29.666Z,71.70
2018-07-20T20:52:00.359Z,72.60
2018-07-20T20:54:29.974Z,73.20
2018-07-20T20:56:59.573Z,75.70
2018-07-20T20:59:29.199Z,76.80
2018-07-20T21:01:58.935Z,77.10
2018-07-20T21:04:28.566Z,79.30
2018-07-20T21:06:58.309Z,78.70
2018-07-20T21:09:27.937Z,78.40
2018-07-20T21:11:57.588Z,80.30
2018-07-20T21:14:27.215Z,79.50
2018-07-20T21:16:56.805Z,79.90
2018-07-20T21:19:26.452Z,79.70
2018-07-20T21:21:56.077Z,80.10
2018-07-20T21:24:25.681Z,81.50
2018-07-20T21:26:55.322Z,80.40
2018-07-20T21:29:24.938Z,80.00
2018-07-20T21:31:54.582Z,85.50
2018-07-20T21:34:24.195Z,87.50
2018-07-20T21:36:53.826Z,87.00
2018-07-20T21:39:23.455Z,85.00
2018-07-20T21:41:53.088Z,84.90
2018-07-20T21:44:22.733Z,84.00
2018-07-20T21:46:52.385Z,83.40
2018-07-20T21:49:21.993Z,83.80
2018-07-20T21:51:51.714Z,84.10
2018-07-20T21:54:21.358Z,83.70
2018-07-20T21:56:50.981Z,87.90
2018-07-20T21:59:20.654Z,89.00
2018-07-20T22:01:50.410Z,86.90
2018-07-20T22:04:20.054Z,85.70
2018-07-20T22:06:49.692Z,87.20
2018-07-20T22:09:19.279Z,89.20
2018-07-20T22:11:48.898Z,89.30
2018-07-20T22:14:20.581Z,90.50
2018-07-20T22:16:50.225Z,91.30
2018-07-20T22:19:19.845Z,91.80
2018-07-20T22:21:49.448Z,92.10
2018-07-20T22:24:19.094Z,92.60
2018-07-20T22:26:48.722Z,93.20
2018-07-20T22:29:18.378Z,94.20
2018-07-20T22:31:48.021Z,94.40
2018-07-20T22:34:17.671Z,94.20
2018-07-20T22:36:47.245Z,93.40
2018-07-20T22:39:16.846Z,94.60
2018-07-20T22:41:46.413Z,93.40
2018-07-20T22:44:16.110Z,92.60
2018-07-20T22:46:45.702Z,92.50
2018-07-20T22:49:15.305Z,94.00
2018-07-20T22:51:44.918Z,92.00
2018-07-20T22:54:14.797Z,92.10
2018-07-20T22:56:44.445Z,93.80
2018-07-20T22:59:14.094Z,94.80
2018-07-20T23:01:43.722Z,95.80
2018-07-20T23:04:13.338Z,96.10
2018-07-20T23:06:48.445Z,95.90
2018-07-20T23:09:18.271Z,94.00
2018-07-20T23:11:49.906Z,92.90
2018-07-20T23:14:19.648Z,93.00
2018-07-20T23:16:54.437Z,92.90
2018-07-20T23:19:26.141Z,92.70
2018-07-20T23:21:59.798Z,94.10
2018-07-20T23:24:29.441Z,93.30
2018-07-20T23:26:59.281Z,93.10
2018-07-20T23:29:28.917Z,95.00
2018-07-20T23:32:11.853Z,95.60
2018-07-20T23:34:41.475Z,95.50
2018-07-20T23:37:11.077Z,94.60
2018-07-20T23:39:44.835Z,94.00
2018-07-20T23:42:15.475Z,93.40
2018-07-20T23:44:45.333Z,93.30
2018-07-20T23:47:18.521Z,93.50
2018-07-20T23:49:48.205Z,93.30
2018-07-20T23:52:17.793Z,94.50
2018-07-20T23:54:47.400Z,96.00
2018-07-20T23:57:17.001Z,94.60
2018-07-20T23:59:46.642Z,94.80
